createdAt,value
2022-11-22T00:00:19.947Z,5.33
2022-11-22T00:02:46.450Z,5.44
2022-11-22T00:05:13.390Z,5.47
2022-11-22T00:07:40.016Z,5.53
2022-11-22T00:10:08.544Z,5.52
2022-11-22T00:12:35.237Z,5.60
2022-11-22T00:15:01.774Z,5.56
2022-11-22T00:17:28.246Z,5.63
2022-11-22T00:19:54.740Z,5.63
2022-11-22T00:22:21.181Z,5.55
2022-11-22T00:24:48.122Z,5.57
2022-11-22T00:27:14.591Z,5.51
2022-11-22T00:29:41.060Z,5.56
2022-11-22T00:32:07.748Z,5.63
2022-11-22T00:34:34.249Z,5.75
2022-11-22T00:37:00.687Z,5.79
2022-11-22T00:39:27.579Z,5.88
2022-11-22T00:41:54.281Z,5.91
2022-11-22T00:44:20.803Z,5.81
2022-11-22T00:46:47.243Z,5.90
2022-11-22T00:49:13.807Z,5.88
2022-11-22T00:51:40.568Z,5.94
2022-11-22T00:54:07.472Z,5.83
2022-11-22T00:56:34.179Z,5.91
2022-11-22T00:59:00.758Z,6.06
2022-11-22T01:01:27.293Z,6.04
2022-11-22T01:03:53.872Z,5.94
2022-11-22T01:06:20.458Z,6.04
2022-11-22T01:08:46.937Z,6.04
2022-11-22T01:11:16.527Z,6.02
2022-11-22T01:13:43.170Z,6.06
2022-11-22T01:16:11.806Z,6.05
2022-11-22T01:18:38.349Z,6.05
2022-11-22T01:21:05.872Z,6.18
2022-11-22T01:23:33.132Z,6.07
2022-11-22T01:25:59.883Z,5.99
2022-11-22T01:28:27.016Z,6.01
2022-11-22T01:30:54.387Z,6.03
2022-11-22T01:33:21.362Z,6.03
2022-11-22T01:35:48.097Z,6.04
2022-11-22T01:38:14.635Z,6.03
2022-11-22T01:40:41.174Z,5.92
2022-11-22T01:43:17.200Z,5.92
2022-11-22T01:45:52.253Z,5.88
2022-11-22T01:48:25.471Z,5.97
2022-11-22T01:50:58.191Z,5.99
2022-11-22T01:53:36.089Z,6.02
2022-11-22T01:56:04.624Z,6.04
2022-11-22T01:58:34.579Z,6.03
2022-11-22T02:01:02.086Z,6.01
2022-11-22T02:03:31.868Z,5.97
2022-11-22T02:05:59.335Z,6.09
2022-11-22T02:08:41.923Z,5.97
2022-11-22T02:11:09.744Z,5.90
2022-11-22T02:13:42.106Z,5.98
2022-11-22T02:16:09.864Z,5.95
2022-11-22T02:18:37.567Z,5.87
2022-11-22T02:21:05.461Z,5.80
2022-11-22T02:23:41.309Z,5.77
2022-11-22T02:26:07.819Z,5.81
2022-11-22T02:28:37.849Z,5.74
2022-11-22T02:31:04.832Z,5.74
2022-11-22T02:33:31.304Z,5.85
2022-11-22T02:35:58.447Z,5.80
2022-11-22T02:38:29.413Z,5.79
2022-11-22T02:41:07.223Z,5.67
2022-11-22T02:43:37.449Z,5.64
2022-11-22T02:46:05.585Z,5.52
2022-11-22T02:48:32.578Z,5.57
2022-11-22T02:50:59.323Z,5.45
2022-11-22T02:53:26.139Z,5.44
2022-11-22T02:55:52.643Z,5.44
2022-11-22T02:58:19.129Z,5.38
2022-11-22T03:00:45.676Z,5.40
2022-11-22T03:03:12.190Z,5.38
2022-11-22T03:05:38.640Z,5.42
2022-11-22T03:08:05.219Z,5.33
2022-11-22T03:10:31.833Z,5.21
2022-11-22T03:12:59.544Z,5.22
2022-11-22T03:15:26.036Z,5.17
2022-11-22T03:18:01.359Z,5.10
2022-11-22T03:20:28.095Z,5.07
2022-11-22T03:22:55.341Z,5.10
2022-11-22T03:25:22.275Z,5.09
2022-11-22T03:27:48.936Z,5.02
2022-11-22T03:30:15.794Z,4.98
2022-11-22T03:32:42.306Z,5.03
2022-11-22T03:35:09.347Z,5.08
2022-11-22T03:37:35.812Z,5.12
2022-11-22T03:40:02.281Z,5.07
2022-11-22T03:42:28.755Z,4.99
2022-11-22T03:44:55.249Z,5.00
2022-11-22T03:47:21.784Z,4.95
2022-11-22T03:49:48.238Z,4.94
2022-11-22T03:52:14.989Z,4.91
2022-11-22T03:54:41.664Z,4.97
2022-11-22T03:57:08.196Z,4.99
2022-11-22T03:59:34.673Z,4.97
2022-11-22T04:02:01.274Z,4.89
2022-11-22T04:04:27.800Z,4.77
2022-11-22T04:06:54.258Z,4.87
2022-11-22T04:09:20.755Z,4.86
2022-11-22T04:11:47.303Z,4.88
2022-11-22T04:14:46.161Z,4.79
2022-11-22T04:17:14.007Z,4.79
2022-11-22T04:20:00.428Z,4.64
2022-11-22T04:22:26.895Z,4.71
2022-11-22T04:25:11.819Z,4.71
2022-11-22T04:27:38.314Z,4.68
2022-11-22T04:30:05.249Z,4.60
2022-11-22T04:32:46.862Z,4.58
2022-11-22T04:35:15.556Z,4.43
2022-11-22T04:37:43.210Z,4.31
2022-11-22T04:40:10.299Z,4.34
2022-11-22T04:42:55.409Z,4.42
2022-11-22T04:45:21.925Z,4.58
2022-11-22T04:48:00.352Z,4.52
2022-11-22T04:50:50.046Z,4.49
2022-11-22T04:53:17.630Z,4.58
2022-11-22T04:55:46.516Z,4.66
2022-11-22T04:58:13.678Z,4.67
2022-11-22T05:00:40.432Z,4.67
2022-11-22T05:03:07.604Z,4.72
2022-11-22T05:05:39.461Z,4.82
2022-11-22T05:08:07.094Z,4.77
2022-11-22T05:10:53.244Z,4.80
2022-11-22T05:13:21.906Z,4.82
2022-11-22T05:15:48.651Z,4.75
2022-11-22T05:18:15.482Z,4.85
2022-11-22T05:20:41.925Z,4.89
2022-11-22T05:23:27.033Z,4.83
2022-11-22T05:25:53.495Z,4.90
2022-11-22T05:28:19.981Z,4.82
2022-11-22T05:30:46.447Z,4.87
2022-11-22T05:33:12.922Z,4.77
2022-11-22T05:35:39.430Z,4.94
2022-11-22T05:38:06.037Z,4.80
2022-11-22T05:40:32.493Z,4.73
2022-11-22T05:42:59.369Z,4.76
2022-11-22T05:45:25.996Z,4.78
2022-11-22T05:47:52.496Z,4.65
2022-11-22T05:50:18.999Z,4.63
2022-11-22T05:52:53.927Z,4.57
2022-11-22T05:55:20.537Z,4.63
2022-11-22T05:57:46.996Z,4.72
2022-11-22T06:00:13.794Z,4.66
2022-11-22T06:02:40.480Z,4.73
2022-11-22T06:05:07.324Z,4.67
2022-11-22T06:07:33.882Z,4.70
2022-11-22T06:10:00.399Z,4.72
2022-11-22T06:12:26.888Z,4.79
2022-11-22T06:14:53.347Z,4.81
2022-11-22T06:17:19.845Z,4.79
2022-11-22T06:19:46.482Z,4.80
2022-11-22T06:22:12.941Z,4.84
2022-11-22T06:24:39.404Z,4.74
2022-11-22T06:27:05.866Z,4.79
2022-11-22T06:29:32.668Z,4.79
2022-11-22T06:32:03.488Z,4.76
2022-11-22T06:34:30.673Z,4.74
2022-11-22T06:36:57.158Z,4.66
2022-11-22T06:39:23.647Z,4.68
2022-11-22T06:41:50.138Z,4.73
2022-11-22T06:44:16.631Z,4.72
2022-11-22T06:46:43.086Z,4.64
2022-11-22T06:49:09.600Z,4.47
2022-11-22T06:51:36.172Z,4.43
2022-11-22T06:54:02.695Z,4.36
2022-11-22T06:56:31.677Z,4.29
2022-11-22T06:59:02.717Z,4.40
2022-11-22T07:01:29.889Z,4.51
2022-11-22T07:04:00.426Z,4.60
2022-11-22T07:06:35.211Z,4.62
2022-11-22T07:09:04.663Z,4.62
2022-11-22T07:11:32.144Z,4.55
2022-11-22T07:14:05.383Z,4.37
2022-11-22T07:16:35.660Z,4.23
2022-11-22T07:19:02.172Z,4.22
2022-11-22T07:21:28.759Z,4.18
2022-11-22T07:23:55.614Z,4.09
2022-11-22T07:26:23.789Z,4.15
2022-11-22T07:28:50.837Z,4.14
2022-11-22T07:31:18.698Z,4.14
2022-11-22T07:33:45.241Z,4.08
2022-11-22T07:36:14.810Z,4.10
2022-11-22T07:38:41.440Z,4.08
2022-11-22T07:41:09.085Z,4.07
2022-11-22T07:43:36.296Z,4.09
2022-11-22T07:46:11.398Z,4.13
2022-11-22T07:48:37.995Z,4.23
2022-11-22T07:51:07.031Z,4.15
2022-11-22T07:53:35.008Z,4.13
2022-11-22T07:56:05.850Z,4.21
2022-11-22T07:58:33.842Z,4.28
2022-11-22T08:01:08.245Z,4.35
2022-11-22T08:03:35.332Z,4.34
2022-11-22T08:06:03.696Z,4.57
2022-11-22T08:08:30.580Z,4.34
2022-11-22T08:10:57.234Z,4.43
2022-11-22T08:13:24.072Z,4.37
2022-11-22T08:15:52.408Z,4.60
2022-11-22T08:18:21.808Z,4.70
2022-11-22T08:20:48.276Z,4.62
2022-11-22T08:23:14.842Z,4.59
2022-11-22T08:25:41.404Z,4.62
2022-11-22T08:28:07.959Z,4.75
2022-11-22T08:30:34.404Z,4.72
2022-11-22T08:33:00.868Z,4.64
2022-11-22T08:35:27.363Z,4.69
2022-11-22T08:37:56.583Z,4.67
2022-11-22T08:40:23.112Z,4.71
2022-11-22T08:42:49.738Z,4.95
2022-11-22T08:45:16.253Z,4.87
2022-11-22T08:47:42.991Z,4.94
2022-11-22T08:50:10.086Z,4.92
2022-11-22T08:52:36.599Z,4.86
2022-11-22T08:55:03.217Z,5.08
2022-11-22T08:57:29.676Z,5.01
2022-11-22T08:59:56.132Z,4.97
2022-11-22T09:02:22.562Z,4.99
2022-11-22T09:04:49.048Z,4.96
2022-11-22T09:10:04.218Z,5.21
2022-11-22T09:12:30.709Z,5.62
2022-11-22T09:14:57.173Z,6.85
2022-11-22T09:17:23.671Z,5.72
2022-11-22T09:19:50.261Z,5.61
2022-11-22T09:22:16.743Z,5.57
2022-11-22T09:24:43.185Z,5.57
2022-11-22T09:27:09.639Z,5.70
2022-11-22T09:29:36.096Z,5.59
2022-11-22T09:32:03.428Z,5.55
2022-11-22T09:34:30.000Z,5.50
2022-11-22T09:36:56.435Z,5.42
2022-11-22T09:39:22.865Z,5.33
2022-11-22T09:41:49.281Z,5.40
2022-11-22T09:44:58.767Z,5.36
2022-11-22T09:47:25.254Z,5.32
2022-11-22T09:50:30.012Z,5.57
2022-11-22T09:53:07.964Z,5.71
2022-11-22T09:55:46.275Z,5.70
2022-11-22T09:58:33.408Z,5.83
2022-11-22T10:01:17.222Z,5.90
2022-11-22T10:03:47.268Z,5.82
2022-11-22T10:06:41.637Z,5.96
2022-11-22T10:09:45.748Z,5.78
2022-11-22T10:12:24.417Z,6.03
2022-11-22T10:15:22.026Z,7.57
2022-11-22T10:18:23.752Z,7.24
2022-11-22T10:20:50.243Z,6.93
2022-11-22T10:23:20.937Z,7.05
2022-11-22T10:25:57.601Z,6.68
2022-11-22T10:28:44.608Z,6.55
2022-11-22T10:31:20.614Z,6.77
2022-11-22T10:34:04.379Z,6.60
2022-11-22T10:37:08.394Z,6.60
2022-11-22T10:39:47.853Z,6.33
2022-11-22T10:42:49.584Z,6.15
2022-11-22T10:45:33.267Z,6.26
2022-11-22T10:48:16.832Z,6.14
2022-11-22T10:51:08.099Z,6.22
2022-11-22T10:54:01.928Z,6.16
2022-11-22T10:57:14.432Z,6.22
2022-11-22T10:59:52.584Z,6.07
2022-11-22T11:02:37.897Z,6.04
2022-11-22T11:05:07.908Z,6.11
2022-11-22T11:07:35.163Z,5.97
2022-11-22T11:10:27.483Z,6.05
2022-11-22T11:13:04.292Z,6.04
2022-11-22T11:15:52.729Z,6.04
2022-11-22T11:18:30.807Z,6.16
2022-11-22T11:20:57.397Z,6.09
2022-11-22T11:23:24.010Z,6.20
2022-11-22T11:25:52.410Z,6.27
2022-11-22T11:28:21.662Z,6.31
2022-11-22T11:30:53.362Z,6.25
2022-11-22T11:33:24.946Z,6.17
2022-11-22T11:35:55.552Z,5.97
2022-11-22T11:38:32.690Z,6.11
2022-11-22T11:41:18.631Z,6.10
2022-11-22T11:43:45.882Z,6.09
2022-11-22T11:46:26.154Z,6.28
2022-11-22T11:49:09.084Z,6.22
2022-11-22T11:51:41.286Z,6.40
2022-11-22T11:54:23.472Z,6.25
2022-11-22T11:56:58.112Z,6.34
2022-11-22T11:59:41.596Z,6.39
2022-11-22T12:02:11.183Z,6.48
2022-11-22T12:04:54.848Z,6.26
2022-11-22T12:07:39.086Z,6.31
2022-11-22T12:10:43.128Z,6.45
2022-11-22T12:13:32.376Z,6.28
2022-11-22T12:16:14.216Z,6.26
2022-11-22T12:18:43.716Z,6.28
2022-11-22T12:21:39.526Z,6.43
2022-11-22T12:27:12.904Z,6.03
2022-11-22T12:29:44.489Z,6.15
2022-11-22T12:32:27.195Z,6.36
2022-11-22T12:35:14.476Z,6.34
2022-11-22T12:37:55.106Z,6.39
2022-11-22T12:40:32.404Z,6.20
2022-11-22T12:43:03.733Z,6.22
2022-11-22T12:45:35.478Z,6.05
2022-11-22T12:48:14.024Z,6.00
2022-11-22T12:50:46.461Z,6.12
2022-11-22T12:53:16.186Z,5.97
2022-11-22T12:55:54.265Z,5.97
2022-11-22T12:58:29.786Z,5.92
2022-11-22T13:01:26.164Z,6.09
2022-11-22T13:04:07.311Z,5.91
2022-11-22T13:06:56.921Z,5.94
2022-11-22T13:09:30.363Z,5.77
2022-11-22T13:12:13.506Z,5.82
2022-11-22T13:14:44.524Z,5.91
2022-11-22T13:17:14.035Z,5.78
2022-11-22T13:20:04.576Z,5.77
2022-11-22T13:22:52.528Z,5.76
2022-11-22T13:25:35.670Z,5.45
2022-11-22T13:28:09.960Z,5.65
2022-11-22T13:30:39.390Z,5.52
2022-11-22T13:33:06.774Z,5.78
2022-11-22T13:35:37.634Z,5.57
2022-11-22T13:38:16.298Z,5.61
2022-11-22T13:40:52.294Z,5.51
2022-11-22T13:43:22.529Z,5.65
2022-11-22T13:45:54.917Z,5.61
2022-11-22T13:48:39.823Z,5.53
2022-11-22T13:51:08.284Z,5.40
2022-11-22T13:53:36.985Z,5.43
2022-11-22T13:56:15.446Z,5.45
2022-11-22T13:58:50.970Z,5.65
2022-11-22T14:01:38.309Z,5.54
2022-11-22T14:04:17.038Z,5.49
2022-11-22T14:06:50.445Z,5.53
2022-11-22T14:09:31.937Z,5.27
2022-11-22T14:12:18.454Z,5.42
2022-11-22T14:15:09.728Z,5.42
2022-11-22T14:17:48.061Z,5.44
2022-11-22T14:20:34.049Z,5.55
2022-11-22T14:23:42.403Z,5.83
2022-11-22T14:26:23.421Z,5.80
2022-11-22T14:29:02.269Z,5.73
2022-11-22T14:31:32.109Z,5.82
2022-11-22T14:34:21.531Z,5.83
2022-11-22T14:37:12.867Z,5.90
2022-11-22T14:39:45.367Z,6.00
2022-11-22T14:42:36.906Z,6.04
2022-11-22T14:45:12.270Z,6.05
2022-11-22T14:47:43.299Z,5.91
2022-11-22T14:50:18.224Z,5.94
2022-11-22T14:52:47.011Z,5.88
2022-11-22T14:55:21.110Z,5.86
2022-11-22T14:57:56.772Z,5.95
2022-11-22T15:00:24.958Z,5.88
2022-11-22T15:03:09.647Z,5.79
2022-11-22T15:09:12.528Z,5.79
2022-11-22T15:09:17.127Z,5.84
2022-11-22T15:11:57.063Z,5.64
2022-11-22T15:14:42.087Z,5.77
2022-11-22T15:57:32.528Z,5.64
2022-11-22T15:59:59.986Z,5.62
2022-11-22T16:02:33.077Z,5.58
2022-11-22T16:06:09.969Z,5.66
2022-11-22T16:07:50.892Z,5.63
2022-11-22T16:10:20.409Z,5.56
2022-11-22T16:12:47.102Z,5.67
2022-11-22T16:15:26.750Z,5.64
2022-11-22T16:18:15.761Z,5.62
2022-11-22T16:20:57.853Z,5.68
2022-11-22T16:23:26.860Z,5.65
2022-11-22T16:25:56.634Z,5.64
2022-11-22T16:28:36.046Z,5.59
2022-11-22T16:31:06.625Z,5.60
2022-11-22T16:33:33.312Z,5.54
2022-11-22T16:36:01.778Z,5.55
2022-11-22T16:38:28.791Z,5.45
2022-11-22T16:40:58.220Z,5.30
2022-11-22T16:43:26.395Z,5.32
2022-11-22T16:45:53.209Z,5.39
2022-11-22T16:48:37.651Z,5.46
2022-11-22T16:51:07.048Z,5.45
2022-11-22T16:53:39.885Z,5.33
2022-11-22T16:56:07.019Z,5.26
2022-11-22T16:58:33.447Z,5.31
2022-11-22T17:01:00.884Z,5.34
2022-11-22T17:03:33.597Z,5.34
2022-11-22T17:06:00.251Z,5.37
2022-11-22T17:08:26.708Z,5.36
2022-11-22T17:10:53.334Z,5.36
2022-11-22T17:13:28.821Z,5.42
2022-11-22T17:15:56.574Z,5.45
2022-11-22T17:18:23.117Z,5.53
2022-11-22T17:20:49.835Z,5.45
2022-11-22T17:23:32.088Z,5.35
2022-11-22T17:25:58.543Z,5.51
2022-11-22T17:28:25.144Z,5.49
2022-11-22T17:30:51.677Z,5.40
2022-11-22T17:33:18.254Z,5.52
2022-11-22T17:35:44.961Z,5.51
2022-11-22T17:38:12.220Z,5.55
2022-11-22T17:40:38.916Z,5.55
2022-11-22T17:43:05.502Z,5.50
2022-11-22T17:45:32.236Z,5.36
2022-11-22T17:47:58.712Z,5.32
2022-11-22T17:50:25.193Z,5.39
2022-11-22T17:52:52.108Z,5.39
2022-11-22T17:55:18.671Z,5.36
2022-11-22T17:57:45.160Z,5.40
2022-11-22T18:00:12.218Z,5.38
2022-11-22T18:02:38.774Z,5.43
2022-11-22T18:05:08.335Z,5.43
2022-11-22T18:07:34.878Z,5.53
2022-11-22T18:10:02.045Z,5.53
2022-11-22T18:12:28.535Z,5.55
2022-11-22T18:14:55.102Z,5.56
2022-11-22T18:17:21.570Z,5.56
2022-11-22T18:19:48.086Z,5.59
2022-11-22T18:22:14.571Z,5.58
2022-11-22T18:24:41.045Z,5.50
2022-11-22T18:27:07.898Z,5.53
2022-11-22T18:29:42.917Z,5.52
2022-11-22T18:32:09.905Z,5.47
2022-11-22T18:34:36.607Z,5.46
2022-11-22T18:37:04.692Z,5.54
2022-11-22T18:39:36.798Z,5.54
2022-11-22T18:42:05.196Z,5.61
2022-11-22T18:44:32.300Z,5.48
2022-11-22T18:46:58.864Z,5.40
2022-11-22T18:49:25.396Z,5.28
2022-11-22T18:51:51.900Z,5.35
2022-11-22T18:54:18.609Z,5.34
2022-11-22T18:56:45.103Z,5.13
2022-11-22T18:59:14.518Z,5.12
2022-11-22T19:01:41.809Z,5.11
2022-11-22T19:04:12.561Z,5.02
2022-11-22T19:06:40.441Z,4.84
2022-11-22T19:09:07.282Z,4.86
2022-11-22T19:11:33.935Z,4.94
2022-11-22T19:14:00.439Z,4.94
2022-11-22T19:16:30.612Z,5.03
2022-11-22T19:18:58.373Z,5.02
2022-11-22T19:21:28.325Z,5.06
2022-11-22T19:23:55.583Z,5.08
2022-11-22T19:26:24.904Z,5.11
2022-11-22T19:28:56.301Z,5.21
2022-11-22T19:31:29.191Z,5.07
2022-11-22T19:33:56.201Z,5.16
2022-11-22T19:36:31.804Z,5.21
2022-11-22T19:39:00.148Z,5.26
2022-11-22T19:41:26.920Z,5.14
2022-11-22T19:43:53.469Z,5.08
2022-11-22T19:46:20.026Z,5.10
2022-11-22T19:48:54.684Z,4.96
2022-11-22T19:51:21.870Z,4.98
2022-11-22T19:53:49.059Z,4.83
2022-11-22T19:56:17.734Z,4.69
2022-11-22T19:58:49.574Z,4.79
2022-11-22T20:01:16.606Z,4.67
2022-11-22T20:03:44.461Z,4.70
2022-11-22T20:06:13.112Z,4.63
2022-11-22T20:08:40.030Z,4.72
2022-11-22T20:11:07.943Z,4.65
2022-11-22T20:13:40.030Z,4.70
2022-11-22T20:16:13.866Z,4.90
2022-11-22T20:18:40.361Z,4.80
2022-11-22T20:21:09.117Z,4.84
2022-11-22T20:23:36.744Z,4.96
2022-11-22T20:26:09.594Z,5.03
2022-11-22T20:28:37.635Z,4.98
2022-11-22T20:31:14.128Z,5.08
2022-11-22T20:33:43.074Z,5.21
2022-11-22T20:36:12.428Z,5.12
2022-11-22T20:38:40.823Z,5.11
2022-11-22T20:41:08.226Z,4.84
2022-11-22T20:43:35.749Z,4.76
2022-11-22T20:46:08.017Z,4.70
2022-11-22T20:48:36.662Z,4.66
2022-11-22T20:51:06.096Z,4.61
2022-11-22T20:53:32.951Z,4.72
2022-11-22T20:55:59.614Z,4.76
2022-11-22T20:58:26.682Z,4.71
2022-11-22T21:00:54.497Z,4.69
2022-11-22T21:03:21.506Z,4.66
2022-11-22T21:05:55.773Z,4.58
2022-11-22T21:08:22.956Z,4.57
2022-11-22T21:10:49.851Z,4.78
2022-11-22T21:13:16.610Z,4.76
2022-11-22T21:15:43.364Z,4.53
2022-11-22T21:18:25.297Z,4.57
2022-11-22T21:20:52.564Z,4.48
2022-11-22T21:23:19.136Z,4.35
2022-11-22T21:25:46.087Z,4.36
2022-11-22T21:28:12.577Z,4.27
2022-11-22T21:30:39.109Z,4.10
2022-11-22T21:33:05.624Z,3.81
2022-11-22T21:35:32.130Z,3.99
2022-11-22T21:37:58.585Z,4.08
2022-11-22T21:40:25.055Z,4.08
2022-11-22T21:42:51.500Z,3.95
2022-11-22T21:45:18.006Z,4.30
2022-11-22T21:47:47.341Z,4.56
2022-11-22T21:50:15.248Z,4.60
2022-11-22T21:52:42.406Z,4.65
2022-11-22T21:55:09.791Z,4.59
2022-11-22T21:57:36.364Z,4.53
2022-11-22T22:00:05.006Z,4.65
2022-11-22T22:02:32.676Z,4.59
2022-11-22T22:04:59.203Z,4.69
2022-11-22T22:07:50.827Z,4.75
2022-11-22T22:10:13.627Z,4.54
2022-11-22T22:12:40.867Z,4.66
2022-11-22T22:15:10.155Z,4.83
2022-11-22T22:17:36.624Z,4.86
2022-11-22T22:20:03.400Z,4.98
2022-11-22T22:22:29.883Z,4.94
2022-11-22T22:24:56.343Z,4.96
2022-11-22T22:27:22.799Z,4.88
2022-11-22T22:29:49.257Z,4.89
2022-11-22T22:32:15.718Z,4.91
2022-11-22T22:34:42.179Z,4.97
2022-11-22T22:37:08.767Z,4.92
2022-11-22T22:39:35.244Z,4.90
2022-11-22T22:42:01.787Z,5.00
2022-11-22T22:44:28.829Z,4.97
2022-11-22T22:46:55.283Z,4.93
2022-11-22T22:49:21.734Z,5.02
2022-11-22T22:51:48.728Z,5.01
2022-11-22T22:54:15.190Z,4.98
2022-11-22T22:56:43.442Z,5.11
2022-11-22T22:59:10.059Z,5.10
2022-11-22T23:01:36.534Z,5.06
2022-11-22T23:04:03.284Z,5.02
2022-11-22T23:06:32.655Z,5.16
2022-11-22T23:08:59.712Z,5.12
2022-11-22T23:11:49.027Z,5.13
2022-11-22T23:14:18.125Z,5.14
2022-11-22T23:16:44.609Z,5.09
2022-11-22T23:19:11.381Z,5.22
2022-11-22T23:21:38.609Z,5.16
2022-11-22T23:24:05.932Z,5.19
2022-11-22T23:26:32.780Z,5.12
2022-11-22T23:28:59.955Z,5.20
2022-11-22T23:31:27.265Z,5.22
2022-11-22T23:33:54.187Z,5.28
2022-11-22T23:36:22.386Z,5.31
2022-11-22T23:38:49.098Z,5.26
2022-11-22T23:41:21.038Z,5.41
2022-11-22T23:43:51.664Z,5.38
2022-11-22T23:46:18.262Z,5.41
2022-11-22T23:48:46.488Z,5.39
2022-11-22T23:51:14.459Z,5.38
2022-11-22T23:53:41.064Z,5.51
2022-11-22T23:56:15.862Z,5.45
2022-11-22T23:58:44.641Z,5.47
